createdAt,value
2022-11-18T00:02:26.913Z,73.85
2022-11-18T00:04:54.878Z,73.84
2022-11-18T00:07:24.192Z,73.62
2022-11-18T00:09:52.028Z,73.80
2022-11-18T00:12:37.346Z,73.80
2022-11-18T00:15:05.890Z,74.18
2022-11-18T00:17:34.110Z,74.33
2022-11-18T00:20:02.019Z,73.71
2022-11-18T00:22:31.263Z,74.07
2022-11-18T00:24:59.312Z,74.05
2022-11-18T00:27:30.857Z,74.04
2022-11-18T00:29:58.796Z,73.59
2022-11-18T00:32:26.641Z,73.75
2022-11-18T00:34:54.506Z,73.90
2022-11-18T00:37:22.334Z,73.87
2022-11-18T00:39:51.508Z,73.99
2022-11-18T00:42:37.093Z,73.71
2022-11-18T00:45:05.386Z,73.81
2022-11-18T00:47:33.191Z,74.02
2022-11-18T00:50:01.108Z,73.78
2022-11-18T00:52:28.909Z,73.46
2022-11-18T00:54:58.159Z,73.47
2022-11-18T00:57:25.987Z,74.05
2022-11-18T00:59:53.796Z,73.89
2022-11-18T01:02:21.624Z,73.69
2022-11-18T01:04:49.475Z,74.16
2022-11-18T01:07:17.416Z,74.61
2022-11-18T01:09:45.404Z,74.62
2022-11-18T01:12:32.276Z,74.91
2022-11-18T01:15:00.440Z,75.21
2022-11-18T01:17:31.499Z,75.37
2022-11-18T01:19:59.862Z,75.25
2022-11-18T01:22:27.682Z,74.91
2022-11-18T01:24:55.588Z,75.17
2022-11-18T01:27:24.791Z,75.30
2022-11-18T01:29:52.673Z,74.49
2022-11-18T01:32:25.393Z,75.00
2022-11-18T01:34:53.669Z,74.47
2022-11-18T01:37:21.468Z,74.52
2022-11-18T01:39:49.304Z,74.63
2022-11-18T01:42:18.906Z,74.17
2022-11-18T01:45:16.631Z,74.31
2022-11-18T01:47:49.425Z,74.46
2022-11-18T01:50:21.167Z,75.14
2022-11-18T01:52:51.833Z,75.28
2022-11-18T01:55:25.244Z,75.26
2022-11-18T01:57:59.430Z,75.40
2022-11-18T02:00:28.789Z,75.68
2022-11-18T02:02:58.243Z,75.64
2022-11-18T02:05:27.260Z,75.35
2022-11-18T02:07:55.149Z,74.99
2022-11-18T02:10:25.055Z,74.86
2022-11-18T02:12:54.574Z,74.73
2022-11-18T02:15:36.423Z,74.83
2022-11-18T02:18:13.883Z,74.50
2022-11-18T02:20:43.735Z,74.38
2022-11-18T02:23:31.940Z,74.95
2022-11-18T02:26:17.446Z,74.54
2022-11-18T02:28:59.817Z,74.54
2022-11-18T02:31:33.880Z,74.40
2022-11-18T02:34:11.178Z,74.18
2022-11-18T02:36:43.834Z,74.08
2022-11-18T02:39:18.721Z,74.23
2022-11-18T02:41:49.059Z,73.95
2022-11-18T02:44:20.613Z,74.07
2022-11-18T02:46:52.494Z,74.06
2022-11-18T02:49:23.603Z,73.97
2022-11-18T02:51:52.888Z,74.17
2022-11-18T02:54:23.750Z,73.87
2022-11-18T02:56:53.536Z,74.07
2022-11-18T02:59:22.859Z,74.50
2022-11-18T03:01:50.887Z,74.40
2022-11-18T03:04:19.615Z,74.26
2022-11-18T03:06:56.645Z,74.12
2022-11-18T03:09:29.241Z,74.40
2022-11-18T03:12:08.498Z,74.51
2022-11-18T03:14:45.912Z,74.47
2022-11-18T03:17:21.751Z,74.27
2022-11-18T03:20:12.014Z,74.27
2022-11-18T03:22:45.507Z,74.39
2022-11-18T03:25:21.208Z,74.54
2022-11-18T03:27:55.365Z,74.48
2022-11-18T03:30:26.180Z,75.00
2022-11-18T03:32:59.649Z,74.72
2022-11-18T03:35:32.280Z,74.34
2022-11-18T03:38:06.493Z,74.33
2022-11-18T03:40:38.158Z,74.32
2022-11-18T03:43:13.418Z,74.57
2022-11-18T03:45:47.962Z,74.10
2022-11-18T03:48:18.601Z,74.40
2022-11-18T03:50:51.982Z,75.07
2022-11-18T03:53:22.025Z,74.33
2022-11-18T03:55:55.738Z,74.51
2022-11-18T03:58:28.908Z,74.74
2022-11-18T04:01:05.157Z,74.56
2022-11-18T04:03:33.243Z,75.05
2022-11-18T04:06:16.722Z,74.40
2022-11-18T04:08:52.203Z,74.79
2022-11-18T04:11:45.149Z,74.91
2022-11-18T04:14:15.001Z,74.97
2022-11-18T04:16:45.551Z,74.78
2022-11-18T04:19:13.380Z,74.46
2022-11-18T04:21:41.353Z,74.29
2022-11-18T04:24:09.868Z,74.38
2022-11-18T04:26:37.724Z,74.82
2022-11-18T04:29:05.564Z,75.10
2022-11-18T04:31:33.469Z,74.93
2022-11-18T04:34:02.683Z,75.15
2022-11-18T04:36:30.553Z,75.18
2022-11-18T04:38:58.381Z,75.49
2022-11-18T04:41:46.165Z,75.50
2022-11-18T04:44:14.022Z,76.22
2022-11-18T04:46:42.816Z,76.32
2022-11-18T04:49:14.014Z,76.22
2022-11-18T04:51:42.934Z,75.90
2022-11-18T04:54:11.678Z,76.56
2022-11-18T04:56:44.274Z,76.08
2022-11-18T04:59:17.728Z,76.44
2022-11-18T05:01:45.790Z,76.14
2022-11-18T05:04:16.665Z,76.42
2022-11-18T05:06:44.886Z,76.48
2022-11-18T05:09:13.272Z,76.53
2022-11-18T05:11:58.887Z,76.35
2022-11-18T05:14:27.003Z,76.57
2022-11-18T05:16:55.390Z,76.88
2022-11-18T05:19:24.831Z,76.77
2022-11-18T05:21:52.948Z,76.73
2022-11-18T05:24:20.892Z,77.22
2022-11-18T05:26:48.786Z,77.42
2022-11-18T05:29:16.913Z,77.19
2022-11-18T05:31:44.831Z,76.88
2022-11-18T05:34:13.176Z,76.75
2022-11-18T05:36:42.585Z,76.88
2022-11-18T05:39:10.721Z,77.04
2022-11-18T05:41:56.039Z,76.72
2022-11-18T05:44:24.006Z,76.42
2022-11-18T05:46:51.847Z,76.98
2022-11-18T05:49:20.127Z,77.10
2022-11-18T05:51:49.528Z,77.77
2022-11-18T05:54:20.031Z,77.87
2022-11-18T05:56:48.006Z,78.63
2022-11-18T05:59:16.770Z,78.45
2022-11-18T06:01:49.301Z,78.59
2022-11-18T06:04:22.828Z,78.77
2022-11-18T06:06:55.519Z,78.74
2022-11-18T06:09:27.716Z,78.61
2022-11-18T06:11:58.237Z,78.13
2022-11-18T06:14:31.130Z,79.06
2022-11-18T06:17:03.921Z,78.83
2022-11-18T06:19:32.935Z,78.83
2022-11-18T06:22:02.276Z,79.54
2022-11-18T06:24:30.301Z,79.39
2022-11-18T06:26:59.778Z,79.18
2022-11-18T06:29:28.927Z,79.31
2022-11-18T06:31:56.957Z,79.97
2022-11-18T06:34:24.773Z,79.26
2022-11-18T06:36:52.584Z,79.49
2022-11-18T06:39:22.467Z,79.32
2022-11-18T06:41:50.262Z,78.66
2022-11-18T06:44:17.167Z,78.94
2022-11-18T06:46:57.276Z,77.71
2022-11-18T06:49:26.293Z,78.15
2022-11-18T06:51:54.501Z,77.78
2022-11-18T06:54:23.756Z,78.42
2022-11-18T06:56:51.745Z,78.69
2022-11-18T06:59:23.674Z,78.56
2022-11-18T07:01:53.248Z,78.51
2022-11-18T07:04:21.692Z,78.50
2022-11-18T07:06:49.707Z,78.41
2022-11-18T07:09:17.982Z,77.81
2022-11-18T07:11:47.498Z,78.23
2022-11-18T07:14:15.374Z,78.23
2022-11-18T07:16:43.550Z,77.95
2022-11-18T07:19:13.744Z,77.92
2022-11-18T07:21:43.347Z,77.96
2022-11-18T07:24:14.750Z,77.35
2022-11-18T07:26:43.229Z,77.74
2022-11-18T07:29:12.490Z,78.09
2022-11-18T07:31:40.861Z,77.42
2022-11-18T07:34:09.018Z,77.30
2022-11-18T07:36:36.835Z,77.49
2022-11-18T07:39:06.195Z,77.45
2022-11-18T07:41:35.131Z,77.40
2022-11-18T07:44:04.220Z,77.31
2022-11-18T07:46:35.109Z,77.17
2022-11-18T07:49:04.500Z,77.12
2022-11-18T07:51:34.447Z,77.23
2022-11-18T07:54:02.975Z,76.97
2022-11-18T07:56:30.792Z,76.99
2022-11-18T07:58:58.640Z,76.90
2022-11-18T08:01:29.132Z,76.71
2022-11-18T08:03:58.889Z,76.70
2022-11-18T08:06:26.780Z,77.07
2022-11-18T08:08:54.575Z,77.29
2022-11-18T08:11:23.145Z,77.03
2022-11-18T08:13:51.261Z,77.34
2022-11-18T08:16:22.355Z,77.46
2022-11-18T08:18:50.720Z,77.17
2022-11-18T08:21:22.165Z,77.24
2022-11-18T08:23:54.639Z,76.97
2022-11-18T08:26:22.918Z,76.81
2022-11-18T08:28:51.120Z,76.95
2022-11-18T08:31:20.967Z,77.28
2022-11-18T08:33:49.064Z,77.23
2022-11-18T08:36:18.741Z,76.95
2022-11-18T08:38:48.098Z,77.79
2022-11-18T08:41:17.746Z,77.59
2022-11-18T08:43:45.548Z,77.42
2022-11-18T08:46:13.393Z,77.70
2022-11-18T08:48:41.185Z,77.28
2022-11-18T08:51:10.543Z,77.12
2022-11-18T08:53:38.436Z,77.11
2022-11-18T08:56:08.249Z,77.56
2022-11-18T08:58:36.150Z,77.73
2022-11-18T09:01:06.619Z,77.25
2022-11-18T09:03:34.704Z,76.75
2022-11-18T09:06:07.433Z,77.41
2022-11-18T09:08:35.264Z,76.41
2022-11-18T09:11:08.746Z,76.40
2022-11-18T09:14:14.416Z,76.36
2022-11-18T09:16:28.187Z,76.24
2022-11-18T09:18:57.957Z,76.28
2022-11-18T09:21:27.182Z,76.23
2022-11-18T09:23:55.624Z,76.35
2022-11-18T09:26:24.977Z,75.76
2022-11-18T09:28:55.126Z,75.61
2022-11-18T09:31:23.067Z,76.29
2022-11-18T09:33:51.083Z,75.75
2022-11-18T09:36:20.898Z,75.98
2022-11-18T09:38:52.960Z,75.57
2022-11-18T09:41:45.137Z,75.22
2022-11-18T09:44:23.409Z,75.43
2022-11-18T09:47:04.007Z,75.04
2022-11-18T09:49:34.348Z,75.06
2022-11-18T09:52:05.859Z,74.68
2022-11-18T09:54:36.852Z,74.95
2022-11-18T09:57:14.677Z,75.28
2022-11-18T09:59:43.409Z,74.64
2022-11-18T10:02:40.486Z,74.96
2022-11-18T10:05:16.966Z,74.25
2022-11-18T10:07:50.957Z,74.87
2022-11-18T10:10:24.920Z,75.22
2022-11-18T10:13:00.859Z,74.59
2022-11-18T10:15:37.252Z,75.09
2022-11-18T10:18:44.943Z,75.15
2022-11-18T10:21:20.062Z,74.92
2022-11-18T10:23:54.216Z,74.75
2022-11-18T10:26:34.866Z,74.86
2022-11-18T10:29:07.590Z,74.50
2022-11-18T10:31:37.945Z,74.22
2022-11-18T10:34:06.088Z,74.73
2022-11-18T10:36:35.418Z,74.26
2022-11-18T10:39:14.858Z,74.25
2022-11-18T10:41:46.679Z,74.65
2022-11-18T10:44:32.276Z,73.80
2022-11-18T10:47:26.130Z,74.72
2022-11-18T10:49:55.518Z,74.29
2022-11-18T10:52:23.835Z,74.68
2022-11-18T10:55:19.277Z,74.57
2022-11-18T10:57:48.134Z,75.14
2022-11-18T11:00:41.322Z,75.80
2022-11-18T11:03:32.679Z,75.79
2022-11-18T11:06:24.510Z,76.64
2022-11-18T11:08:53.709Z,76.93
2022-11-18T11:11:28.751Z,76.69
2022-11-18T11:14:03.053Z,76.61
2022-11-18T11:16:34.913Z,76.40
2022-11-18T11:19:05.189Z,76.45
2022-11-18T11:21:33.083Z,76.94
2022-11-18T11:24:00.957Z,77.09
2022-11-18T11:29:38.427Z,76.45
2022-11-18T11:32:17.172Z,76.19
2022-11-18T11:34:52.822Z,76.03
2022-11-18T11:37:30.155Z,75.85
2022-11-18T11:40:11.664Z,76.84
2022-11-18T11:42:49.635Z,77.28
2022-11-18T11:45:25.407Z,77.67
2022-11-18T11:48:14.846Z,77.90
2022-11-18T11:51:04.217Z,77.54
2022-11-18T11:54:02.616Z,78.01
2022-11-18T11:56:35.454Z,78.30
2022-11-18T11:59:25.615Z,77.77
2022-11-18T12:02:00.671Z,78.25
2022-11-18T12:04:44.006Z,78.15
2022-11-18T12:07:19.557Z,77.96
2022-11-18T12:10:10.504Z,78.30
2022-11-18T12:12:47.071Z,77.32
2022-11-18T12:15:31.663Z,78.14
2022-11-18T12:18:12.111Z,78.48
2022-11-18T12:20:45.810Z,78.52
2022-11-18T12:23:16.283Z,79.16
2022-11-18T12:26:04.222Z,79.65
2022-11-18T12:28:35.586Z,79.76
2022-11-18T12:31:33.323Z,79.90
2022-11-18T12:34:04.807Z,80.81
2022-11-18T12:36:36.283Z,81.35
2022-11-18T12:39:53.171Z,81.14
2022-11-18T12:43:10.126Z,81.53
2022-11-18T12:45:48.832Z,80.88
2022-11-18T12:48:32.578Z,80.64
2022-11-18T12:51:02.391Z,80.99
2022-11-18T12:53:38.784Z,80.91
2022-11-18T12:56:22.676Z,81.36
2022-11-18T12:58:52.088Z,80.56
2022-11-18T13:01:22.645Z,80.53
2022-11-18T13:03:51.470Z,80.76
2022-11-18T13:06:26.853Z,80.42
2022-11-18T13:08:59.624Z,80.64
2022-11-18T13:11:48.018Z,80.34
2022-11-18T13:14:36.102Z,80.07
2022-11-18T13:17:21.903Z,79.93
2022-11-18T13:19:57.707Z,80.39
2022-11-18T13:22:43.366Z,79.68
2022-11-18T13:25:26.166Z,79.45
2022-11-18T13:28:03.409Z,79.83
2022-11-18T13:30:34.760Z,79.18
2022-11-18T13:33:02.671Z,78.94
2022-11-18T13:35:30.572Z,79.42
2022-11-18T13:38:00.125Z,78.83
2022-11-18T13:40:31.477Z,78.68
2022-11-18T13:42:59.384Z,78.41
2022-11-18T13:45:29.358Z,78.98
2022-11-18T13:48:02.661Z,78.44
2022-11-18T13:50:34.256Z,77.86
2022-11-18T13:53:10.613Z,78.19
2022-11-18T13:55:46.572Z,77.61
2022-11-18T13:58:30.370Z,77.32
2022-11-18T14:01:00.658Z,76.94
2022-11-18T14:03:33.030Z,77.29
2022-11-18T14:06:02.396Z,76.83
2022-11-18T14:08:32.748Z,76.77
2022-11-18T14:11:02.570Z,77.03
2022-11-18T14:13:32.301Z,76.02
2022-11-18T14:16:02.226Z,76.18
2022-11-18T14:18:33.578Z,76.77
2022-11-18T14:21:02.996Z,76.35
2022-11-18T14:23:34.001Z,75.33
2022-11-18T14:26:06.015Z,75.28
2022-11-18T14:28:36.860Z,74.38
2022-11-18T14:31:08.391Z,74.46
2022-11-18T14:33:37.316Z,73.44
2022-11-18T14:36:12.789Z,74.08
2022-11-18T14:41:50.550Z,73.59
2022-11-18T14:44:19.220Z,73.46
2022-11-18T14:46:49.439Z,73.04
2022-11-18T14:49:19.466Z,73.01
2022-11-18T14:51:48.251Z,72.75
2022-11-18T14:54:25.111Z,73.69
2022-11-18T14:56:58.084Z,74.02
2022-11-18T14:59:26.022Z,74.24
2022-11-18T15:01:53.940Z,73.30
2022-11-18T15:04:22.088Z,72.91
2022-11-18T15:06:50.359Z,73.38
2022-11-18T15:09:18.345Z,73.20
2022-11-18T15:11:46.147Z,73.95
2022-11-18T15:14:15.572Z,73.18
2022-11-18T15:16:43.637Z,73.69
2022-11-18T15:19:15.818Z,73.90
2022-11-18T15:21:43.710Z,73.42
2022-11-18T15:24:11.577Z,73.58
2022-11-18T15:26:42.053Z,73.94
2022-11-18T15:29:17.778Z,74.48
2022-11-18T15:31:45.740Z,74.25
2022-11-18T15:34:14.221Z,74.68
2022-11-18T15:36:42.030Z,74.68
2022-11-18T15:39:11.206Z,74.23
2022-11-18T15:41:40.871Z,74.30
2022-11-18T15:44:11.600Z,74.59
2022-11-18T15:46:41.028Z,74.54
2022-11-18T15:49:14.090Z,74.12
2022-11-18T15:51:42.178Z,74.43
2022-11-18T15:54:10.051Z,74.02
2022-11-18T15:56:39.840Z,74.24
2022-11-18T15:59:10.391Z,73.89
2022-11-18T16:01:41.139Z,73.43
2022-11-18T16:04:10.917Z,73.60
2022-11-18T16:06:39.618Z,73.31
2022-11-18T16:09:08.313Z,73.27
2022-11-18T16:11:53.872Z,72.82
2022-11-18T16:14:23.355Z,73.23
2022-11-18T16:16:54.649Z,73.39
2022-11-18T16:19:24.824Z,72.92
2022-11-18T16:21:54.324Z,73.13
2022-11-18T16:24:23.817Z,72.62
2022-11-18T16:26:51.699Z,71.85
2022-11-18T16:29:20.753Z,72.46
2022-11-18T16:31:52.377Z,71.70
2022-11-18T16:34:23.508Z,71.85
2022-11-18T16:36:53.485Z,72.50
2022-11-18T16:39:25.103Z,72.42
2022-11-18T16:41:54.582Z,72.60
2022-11-18T16:44:23.213Z,72.44
2022-11-18T16:46:52.937Z,72.42
2022-11-18T16:49:24.247Z,72.43
2022-11-18T16:51:53.848Z,73.13
2022-11-18T16:54:23.798Z,72.60
2022-11-18T16:56:53.171Z,72.89
2022-11-18T16:59:22.583Z,71.90
2022-11-18T17:01:51.414Z,71.60
2022-11-18T17:04:20.815Z,71.95
2022-11-18T17:06:50.036Z,71.48
2022-11-18T17:09:19.754Z,71.62
2022-11-18T17:11:48.510Z,71.73
2022-11-18T17:14:16.497Z,72.24
2022-11-18T17:16:44.657Z,71.41
2022-11-18T17:19:15.100Z,71.72
2022-11-18T17:21:43.824Z,71.13
2022-11-18T17:24:17.562Z,70.87
2022-11-18T17:26:46.462Z,70.53
2022-11-18T17:29:15.166Z,71.16
2022-11-18T17:31:43.227Z,70.85
2022-11-18T17:34:11.971Z,69.70
2022-11-18T17:36:40.491Z,70.13
2022-11-18T17:39:10.719Z,70.47
2022-11-18T17:41:58.008Z,70.19
2022-11-18T17:44:26.303Z,70.46
2022-11-18T17:46:54.211Z,70.69
2022-11-18T17:49:22.381Z,70.63
2022-11-18T17:51:51.580Z,70.56
2022-11-18T17:54:20.074Z,70.07
2022-11-18T17:56:49.958Z,69.83
2022-11-18T17:59:18.340Z,70.65
2022-11-18T18:01:46.794Z,70.38
2022-11-18T18:04:20.359Z,70.16
2022-11-18T18:06:51.100Z,70.52
2022-11-18T18:09:20.750Z,70.64
2022-11-18T18:11:51.198Z,70.54
2022-11-18T18:14:19.159Z,70.12
2022-11-18T18:16:48.842Z,69.82
2022-11-18T18:19:19.153Z,69.81
2022-11-18T18:21:47.092Z,69.80
2022-11-18T18:24:17.237Z,70.18
2022-11-18T18:26:45.406Z,70.20
2022-11-18T18:29:14.902Z,70.82
2022-11-18T18:31:42.889Z,70.24
2022-11-18T18:34:10.804Z,70.31
2022-11-18T18:36:39.082Z,70.16
2022-11-18T18:39:07.021Z,70.33
2022-11-18T18:41:34.912Z,70.18
2022-11-18T18:44:02.798Z,69.30
2022-11-18T18:46:34.218Z,69.71
2022-11-18T18:49:04.709Z,69.51
2022-11-18T18:51:36.390Z,69.72
2022-11-18T18:54:05.314Z,69.19
2022-11-18T18:56:33.772Z,69.26
2022-11-18T18:59:01.915Z,69.32
2022-11-18T19:01:29.852Z,69.37
2022-11-18T19:04:01.314Z,69.35
2022-11-18T19:09:19.152Z,69.30
2022-11-18T19:12:04.518Z,69.52
2022-11-18T19:14:35.013Z,69.42
2022-11-18T19:17:09.500Z,69.61
2022-11-18T19:19:57.886Z,68.90
2022-11-18T19:22:26.399Z,68.99
2022-11-18T19:24:54.690Z,68.96
2022-11-18T19:27:23.206Z,68.92
2022-11-18T19:29:51.075Z,69.13
2022-11-18T19:32:19.052Z,68.65
2022-11-18T19:34:48.484Z,68.83
2022-11-18T19:37:16.352Z,68.91
2022-11-18T19:39:44.241Z,68.47
2022-11-18T19:42:12.171Z,68.47
2022-11-18T19:44:40.585Z,68.37
2022-11-18T19:47:08.405Z,68.05
2022-11-18T19:49:36.407Z,68.07
2022-11-18T19:52:05.538Z,67.50
2022-11-18T19:54:33.379Z,67.83
2022-11-18T19:57:03.679Z,67.60
2022-11-18T19:59:31.566Z,68.29
2022-11-18T20:01:59.427Z,68.26
2022-11-18T20:04:27.462Z,68.09
2022-11-18T20:06:55.287Z,68.22
2022-11-18T20:09:25.397Z,68.15
2022-11-18T20:11:53.487Z,68.49
2022-11-18T20:14:21.543Z,68.76
2022-11-18T20:16:51.524Z,68.89
2022-11-18T20:19:19.602Z,68.87
2022-11-18T20:21:48.799Z,68.83
2022-11-18T20:24:18.553Z,69.08
2022-11-18T20:26:48.595Z,68.89
2022-11-18T20:29:16.740Z,68.67
2022-11-18T20:31:44.973Z,68.79
2022-11-18T20:34:14.639Z,68.58
2022-11-18T20:36:42.818Z,68.15
2022-11-18T20:39:14.587Z,68.33
2022-11-18T20:41:42.545Z,68.19
2022-11-18T20:44:11.698Z,68.02
2022-11-18T20:46:39.523Z,68.19
2022-11-18T20:49:07.320Z,68.24
2022-11-18T20:51:35.144Z,68.42
2022-11-18T20:54:07.621Z,68.54
2022-11-18T20:56:35.403Z,68.54
2022-11-18T20:59:03.290Z,68.46
2022-11-18T21:01:33.650Z,68.07
2022-11-18T21:04:03.530Z,68.06
2022-11-18T21:06:32.988Z,68.52
2022-11-18T21:09:02.521Z,67.94
2022-11-18T21:11:31.112Z,67.90
2022-11-18T21:14:22.851Z,67.72
2022-11-18T21:16:55.157Z,67.47
2022-11-18T21:19:23.540Z,67.38
2022-11-18T21:21:52.410Z,67.22
2022-11-18T21:24:22.906Z,67.48
2022-11-18T21:26:54.522Z,67.53
2022-11-18T21:29:23.772Z,67.73
2022-11-18T21:31:53.848Z,67.42
2022-11-18T21:34:22.526Z,66.46
2022-11-18T21:36:54.591Z,66.47
2022-11-18T21:39:23.904Z,66.54
2022-11-18T21:41:55.741Z,66.54
2022-11-18T21:44:24.416Z,66.47
2022-11-18T21:46:53.589Z,66.42
2022-11-18T21:49:22.258Z,66.66
2022-11-18T21:51:50.466Z,66.88
2022-11-18T21:54:18.640Z,66.95
2022-11-18T21:56:46.568Z,66.65
2022-11-18T21:59:14.388Z,66.51
2022-11-18T22:01:42.150Z,67.01
2022-11-18T22:04:31.624Z,67.00
2022-11-18T22:06:59.470Z,66.81
2022-11-18T22:09:31.460Z,66.20
2022-11-18T22:12:02.616Z,67.30
2022-11-18T22:14:30.448Z,66.59
2022-11-18T22:16:58.270Z,67.14
2022-11-18T22:19:27.421Z,67.12
2022-11-18T22:21:55.186Z,67.20
2022-11-18T22:24:23.496Z,67.22
2022-11-18T22:26:51.278Z,66.98
2022-11-18T22:29:19.336Z,67.28
2022-11-18T22:31:47.354Z,67.45
2022-11-18T22:34:15.159Z,67.72
2022-11-18T22:36:44.515Z,67.81
2022-11-18T22:39:12.419Z,68.18
2022-11-18T22:41:57.895Z,67.83
2022-11-18T22:44:25.922Z,67.53
2022-11-18T22:46:53.996Z,67.83
2022-11-18T22:49:22.066Z,67.50
2022-11-18T22:51:51.556Z,67.46
2022-11-18T22:57:07.888Z,67.13
2022-11-18T22:59:35.698Z,67.71
2022-11-18T23:02:03.556Z,67.64
2022-11-18T23:04:31.371Z,67.42
2022-11-18T23:07:00.569Z,67.71
2022-11-18T23:09:28.494Z,67.52
2022-11-18T23:12:14.039Z,67.70
2022-11-18T23:14:41.881Z,67.79
2022-11-18T23:17:09.735Z,67.70
2022-11-18T23:19:41.971Z,68.00
2022-11-18T23:22:11.217Z,67.07
2022-11-18T23:24:39.034Z,66.96
2022-11-18T23:27:07.062Z,67.12
2022-11-18T23:29:34.927Z,67.29
2022-11-18T23:32:02.806Z,66.84
2022-11-18T23:34:30.591Z,66.24
2022-11-18T23:36:58.406Z,66.55
2022-11-18T23:39:27.643Z,66.85
2022-11-18T23:41:55.476Z,66.73
2022-11-18T23:44:43.214Z,66.90
2022-11-18T23:47:11.070Z,66.55
2022-11-18T23:49:38.906Z,67.01
2022-11-18T23:52:06.832Z,67.23
2022-11-18T23:54:35.988Z,67.31
2022-11-18T23:57:05.594Z,66.89
2022-11-18T23:59:34.083Z,67.16
